Itapororoca, Brazil
Current Conditions -  °F | °C
As of 3:00 PM on Wednesday 26 Nov 2014 (Local Time) from SBJP Reporting Station
Scattered Clouds Scattered Clouds  
Wind Chill: 84°   Ceiling: Unl
Heat Index: 85°   Visibility: 6mi
Dew Point: 63°   Wind: 12mph
Humidity: 48%   Direction: 120°ESE
Pressure: 29.88"   Gusts: NA
Location:  6.83°S, 35.24°W
Report Text: SBJP 261800Z 12010KT 090V150 9999 SCT040 29/17 Q1012
Loading
Personal Weather Stations






























Interactive Weather Map New forecast layout! Learn more

10-Day Weather Forecast

Advertisements
Track Severe Weather on mobile